Time;durP1;ratioP1;P1;durP2;ratioP2;P2;SDS_P1;SDS_P2;PMS_P1;PMS_P2;Temp;Humidity;BMP_temperature;BMP_pressure;BME280_temperature;BME280_humidity;BME280_pressure;Samples;Min_cycle;Max_cycle;Signal;HPM_P1;HPM_P2
2021/11/30 00:01:25;;;;;;;14.63;10.60;;;4.90;99.90;;;;;;4993972;28;20458;-69
2021/11/30 00:03:51;;;;;;;13.87;10.60;;;4.80;99.90;;;;;;5014028;28;20410;-68
2021/11/30 00:06:17;;;;;;;17.87;9.77;;;4.80;99.90;;;;;;5016338;28;20184;-69
2021/11/30 00:08:43;;;;;;;14.70;9.83;;;4.90;99.90;;;;;;5023618;28;20433;-69
2021/11/30 00:11:11;;;;;;;13.37;10.17;;;5.00;99.90;;;;;;5024313;28;20189;-70
2021/11/30 00:13:38;;;;;;;13.03;10.33;;;5.00;99.90;;;;;;5023653;28;20505;-69
2021/11/30 00:16:04;;;;;;;12.80;9.47;;;4.90;99.90;;;;;;5023065;28;20413;-69
2021/11/30 00:18:34;;;;;;;13.33;10.17;;;5.00;99.90;;;;;;5016462;28;20943;-69
2021/11/30 00:21:05;;;;;;;13.23;10.67;;;5.00;99.90;;;;;;5013363;28;21045;-67
2021/11/30 00:23:31;;;;;;;12.90;10.03;;;5.10;99.90;;;;;;5014820;28;20410;-68
2021/11/30 00:25:57;;;;;;;12.10;9.83;;;5.00;99.90;;;;;;5021756;28;20414;-68
2021/11/30 00:28:23;;;;;;;12.13;10.40;;;5.00;99.90;;;;;;5032482;28;20422;-68
2021/11/30 00:30:49;;;;;;;15.23;10.23;;;5.00;99.90;;;;;;5031770;28;20203;-68
2021/11/30 00:33:15;;;;;;;15.20;10.77;;;5.00;99.90;;;;;;5031205;28;20206;-68
2021/11/30 00:35:41;;;;;;;14.87;10.90;;;4.90;99.90;;;;;;5030591;28;20465;-68
2021/11/30 00:38:08;;;;;;;15.90;10.00;;;4.90;99.90;;;;;;5030267;28;20752;-68
2021/11/30 00:40:36;;;;;;;14.60;11.70;;;4.90;99.90;;;;;;5030085;28;20197;-68
2021/11/30 00:43:02;;;;;;;18.40;13.53;;;4.90;99.90;;;;;;5016618;28;20414;-69
2021/11/30 00:45:36;;;;;;;16.87;11.83;;;4.90;99.90;;;;;;5013788;28;20937;-67
2021/11/30 00:48:07;;;;;;;14.07;11.80;;;4.90;99.90;;;;;;5014657;28;20635;-67
2021/11/30 00:50:33;;;;;;;17.27;12.40;;;4.90;99.90;;;;;;5049080;22;20557;-70
2021/11/30 00:52:59;;;;;;;16.17;11.43;;;4.80;99.90;;;;;;5043218;28;20406;-70
2021/11/30 00:55:25;;;;;;;17.57;12.40;;;4.90;99.90;;;;;;5046023;28;20426;-70
2021/11/30 00:57:51;;;;;;;13.67;10.70;;;4.80;99.90;;;;;;5054755;28;20197;-70
2021/11/30 01:00:18;;;;;;;14.73;11.30;;;4.90;99.90;;;;;;5054436;28;20467;-70
2021/11/30 01:02:45;;;;;;;14.97;11.93;;;4.90;99.90;;;;;;5054956;28;20174;-70
2021/11/30 01:05:13;;;;;;;13.13;11.30;;;4.90;99.90;;;;;;5054768;28;20415;-71
2021/11/30 01:07:38;;;;;;;15.40;10.00;;;4.80;99.90;;;;;;5054493;28;20401;-69
2021/11/30 01:10:13;;;;;;;14.63;10.30;;;4.80;99.90;;;;;;5054196;28;20519;-70
2021/11/30 01:12:39;;;;;;;13.83;11.30;;;4.80;99.90;;;;;;5036311;28;20313;-69
2021/11/30 01:15:09;;;;;;;12.77;10.33;;;4.80;99.90;;;;;;5053993;28;20833;-69
2021/11/30 01:17:35;;;;;;;18.20;10.60;;;4.80;99.90;;;;;;5054354;28;20399;-70
2021/11/30 01:20:02;;;;;;;12.70;9.83;;;4.70;99.90;;;;;;5054335;28;20813;-70
2021/11/30 01:22:27;;;;;;;16.70;10.27;;;4.70;99.90;;;;;;5054233;28;20172;-70
2021/11/30 01:24:53;;;;;;;11.57;10.23;;;4.70;99.90;;;;;;5054175;28;20406;-69
2021/11/30 01:27:18;;;;;;;15.87;11.17;;;4.60;99.90;;;;;;5053544;28;20177;-70
2021/11/30 01:29:44;;;;;;;14.50;10.37;;;4.70;99.90;;;;;;5054327;28;20173;-70
2021/11/30 01:32:10;;;;;;;14.67;10.97;;;4.70;99.90;;;;;;5054209;28;20539;-69
2021/11/30 01:34:35;;;;;;;13.30;10.20;;;4.70;99.90;;;;;;5053919;28;20248;-70
2021/11/30 01:37:01;;;;;;;17.40;10.60;;;4.70;99.90;;;;;;5053864;28;20781;-69
2021/11/30 01:39:27;;;;;;;15.57;10.00;;;4.80;99.90;;;;;;5054049;28;20257;-70
2021/11/30 01:41:54;;;;;;;14.17;9.73;;;4.90;99.90;;;;;;5053790;28;20708;-70
2021/11/30 01:49:35;;;;;;;15.57;10.37;;;4.60;99.90;;;;;;5053650;28;20943;-71
2021/11/30 01:52:06;;;;;;;15.87;9.27;;;4.70;99.90;;;;;;5035714;28;20534;-71
2021/11/30 01:54:32;;;;;;;16.63;9.60;;;4.60;99.90;;;;;;5053567;28;20558;-69
2021/11/30 01:56:58;;;;;;;12.83;7.87;;;4.70;99.90;;;;;;5052196;28;21171;-71
2021/11/30 01:59:24;;;;;;;11.53;7.60;;;4.70;99.90;;;;;;5053622;28;20263;-70
2021/11/30 02:01:51;;;;;;;12.50;8.50;;;4.70;99.90;;;;;;5053254;28;20464;-70
2021/11/30 02:04:16;;;;;;;12.73;7.67;;;4.60;99.90;;;;;;5053430;28;20431;-71
2021/11/30 02:06:42;;;;;;;14.00;8.17;;;4.50;99.90;;;;;;5053131;28;20932;-70
2021/11/30 02:09:07;;;;;;;11.73;7.13;;;4.60;99.90;;;;;;5053574;28;20169;-71
2021/11/30 02:11:33;;;;;;;12.40;8.17;;;4.60;99.90;;;;;;5035460;28;20745;-71
2021/11/30 02:13:59;;;;;;;10.77;7.70;;;4.60;99.90;;;;;;5053064;28;20216;-71
2021/11/30 02:16:25;;;;;;;16.83;7.30;;;4.60;99.90;;;;;;5053220;28;20455;-70
2021/11/30 02:18:55;;;;;;;12.53;7.67;;;4.60;99.90;;;;;;5053650;28;20804;-70
2021/11/30 02:21:23;;;;;;;11.30;7.07;;;4.60;99.90;;;;;;5052904;28;20204;-71
2021/11/30 02:26:21;;;;;;;12.20;7.23;;;4.70;99.90;;;;;;5053257;28;20414;-71
2021/11/30 02:28:50;;;;;;;13.67;6.70;;;4.80;99.90;;;;;;5053303;28;20960;-71
2021/11/30 02:31:19;;;;;;;9.70;6.90;;;4.80;99.90;;;;;;5053572;28;20189;-70
2021/11/30 02:33:44;;;;;;;11.50;7.30;;;4.70;99.90;;;;;;5053086;28;20930;-70
2021/11/30 02:36:21;;;;;;;12.00;6.40;;;4.70;99.90;;;;;;5052518;28;20519;-70
2021/11/30 02:38:46;;;;;;;9.23;5.80;;;4.60;99.90;;;;;;5053156;28;20424;-71
2021/11/30 02:41:12;;;;;;;9.33;6.67;;;4.50;99.90;;;;;;5052197;28;20466;-71
2021/11/30 02:43:37;;;;;;;9.50;5.90;;;4.50;99.90;;;;;;5052661;28;20658;-70
2021/11/30 02:46:03;;;;;;;12.67;6.60;;;4.50;99.90;;;;;;5051797;28;20545;-70
2021/11/30 02:48:29;;;;;;;13.10;6.83;;;4.50;99.90;;;;;;5052514;28;20171;-71
2021/11/30 02:50:56;;;;;;;10.30;6.30;;;4.40;99.90;;;;;;5052558;28;20219;-70
2021/11/30 02:53:22;;;;;;;7.30;5.43;;;4.50;99.90;;;;;;5052422;28;20188;-70
2021/11/30 02:55:47;;;;;;;10.27;6.07;;;4.50;99.90;;;;;;5051993;28;20431;-70
2021/11/30 02:58:14;;;;;;;10.63;5.97;;;4.30;99.90;;;;;;5052904;28;20220;-71
2021/11/30 03:00:41;;;;;;;8.60;5.10;;;4.30;99.90;;;;;;5052132;28;20693;-71
2021/11/30 03:03:07;;;;;;;9.07;5.87;;;4.20;99.90;;;;;;5052778;28;20411;-71
2021/11/30 03:05:34;;;;;;;7.93;6.37;;;4.20;99.90;;;;;;5051950;28;20409;-71
2021/11/30 03:07:59;;;;;;;7.50;5.23;;;4.20;99.90;;;;;;5034158;28;20172;-72
2021/11/30 03:10:25;;;;;;;6.60;5.37;;;4.20;99.90;;;;;;5052056;28;20455;-70
2021/11/30 03:12:51;;;;;;;8.80;5.50;;;4.20;99.90;;;;;;5033316;28;20181;-71
2021/11/30 03:15:25;;;;;;;6.80;4.73;;;4.10;99.90;;;;;;5051787;28;20431;-70
2021/11/30 03:17:53;;;;;;;8.07;5.60;;;4.10;99.90;;;;;;5052296;28;20449;-71
2021/11/30 03:20:18;;;;;;;6.20;5.03;;;4.00;99.90;;;;;;5052355;28;20479;-71
2021/11/30 03:22:46;;;;;;;8.53;5.47;;;4.00;99.90;;;;;;5034018;28;20414;-71
2021/11/30 03:25:12;;;;;;;6.93;5.97;;;4.00;99.90;;;;;;5032209;28;20431;-70
2021/11/30 03:27:38;;;;;;;8.80;5.47;;;4.10;99.90;;;;;;5031769;28;20404;-71
2021/11/30 03:30:06;;;;;;;5.70;5.07;;;4.10;99.90;;;;;;5032054;28;20413;-70
2021/11/30 03:35:16;;;;;;;6.13;4.57;;;4.10;99.90;;;;;;5032191;28;20415;-71
2021/11/30 03:37:41;;;;;;;6.30;5.30;;;4.10;99.90;;;;;;5031683;28;20414;-70
2021/11/30 03:40:10;;;;;;;5.60;4.43;;;4.00;99.90;;;;;;5043470;28;20287;-71
2021/11/30 03:42:37;;;;;;;6.37;4.60;;;4.10;99.90;;;;;;5051453;28;20176;-71
2021/11/30 03:45:04;;;;;;;7.30;5.10;;;3.80;99.90;;;;;;5033979;28;20413;-71
2021/11/30 03:47:30;;;;;;;6.83;5.53;;;3.80;99.90;;;;;;5050791;28;20438;-70
2021/11/30 03:49:55;;;;;;;6.93;6.17;;;3.80;99.90;;;;;;5051435;28;20407;-72
2021/11/30 03:52:21;;;;;;;5.87;4.90;;;3.80;99.90;;;;;;5033644;28;20236;-71
2021/11/30 03:54:46;;;;;;;6.13;5.10;;;3.90;99.90;;;;;;5051624;28;20517;-71
2021/11/30 03:57:12;;;;;;;5.50;4.67;;;3.90;99.90;;;;;;5051208;28;20267;-71
2021/11/30 03:59:37;;;;;;;4.90;4.50;;;3.90;99.90;;;;;;5053312;28;20173;-71
2021/11/30 04:02:03;;;;;;;4.67;4.27;;;3.90;99.90;;;;;;5053002;28;20191;-71
2021/11/30 04:04:35;;;;;;;5.27;4.37;;;3.90;99.90;;;;;;5064543;28;20205;-70
2021/11/30 04:07:01;;;;;;;5.10;4.43;;;3.80;99.90;;;;;;5040285;28;20207;-71
2021/11/30 04:09:28;;;;;;;5.40;4.60;;;3.80;99.90;;;;;;5054087;28;20488;-70
2021/11/30 04:11:54;;;;;;;4.97;4.13;;;3.80;99.90;;;;;;5053426;28;20198;-71
2021/11/30 04:14:20;;;;;;;4.83;4.40;;;3.70;99.90;;;;;;5053799;28;20405;-72
2021/11/30 04:16:46;;;;;;;5.77;4.90;;;3.70;99.90;;;;;;5051057;28;20422;-72
2021/11/30 04:19:12;;;;;;;7.10;6.27;;;3.70;99.90;;;;;;5051504;28;20170;-72
2021/11/30 04:21:38;;;;;;;5.50;5.00;;;3.70;99.90;;;;;;5055191;28;20556;-72
2021/11/30 04:24:04;;;;;;;4.67;4.20;;;3.60;99.90;;;;;;5055648;28;20214;-71
2021/11/30 04:26:30;;;;;;;5.50;4.57;;;3.70;99.90;;;;;;5055341;28;20397;-72
2021/11/30 04:28:56;;;;;;;4.40;4.00;;;3.70;99.90;;;;;;5054839;28;20961;-72
2021/11/30 04:31:22;;;;;;;4.77;4.27;;;3.70;99.90;;;;;;5055473;28;21027;-71
2021/11/30 04:33:48;;;;;;;5.67;5.13;;;3.80;99.90;;;;;;5055404;28;20448;-71
2021/11/30 04:36:14;;;;;;;4.57;4.17;;;3.80;99.90;;;;;;5054876;28;20418;-71
2021/11/30 04:38:40;;;;;;;4.60;4.20;;;3.90;99.90;;;;;;5055364;28;20178;-72
2021/11/30 04:41:06;;;;;;;4.50;4.10;;;4.00;99.90;;;;;;5055228;28;20517;-70
2021/11/30 04:43:34;;;;;;;3.97;3.67;;;4.10;99.90;;;;;;5055120;28;20167;-71
2021/11/30 04:46:10;;;;;;;4.07;3.77;;;3.90;99.90;;;;;;5049259;28;20950;-71
2021/11/30 04:48:35;;;;;;;3.53;3.23;;;4.00;99.90;;;;;;5047924;28;20398;-72
2021/11/30 04:51:03;;;;;;;3.00;2.80;;;4.00;99.90;;;;;;5054625;28;20587;-72
2021/11/30 04:53:31;;;;;;;3.40;3.10;;;4.00;99.90;;;;;;5055185;28;20179;-72
2021/11/30 04:55:56;;;;;;;3.00;2.80;;;4.10;99.90;;;;;;5035561;28;20559;-71
2021/11/30 04:58:22;;;;;;;3.40;3.00;;;4.00;99.90;;;;;;5047171;28;20423;-70
2021/11/30 05:00:48;;;;;;;3.00;2.80;;;4.10;99.90;;;;;;5051815;28;20318;-72
2021/11/30 05:03:14;;;;;;;3.20;3.00;;;4.10;99.90;;;;;;5047352;28;20182;-72
2021/11/30 05:05:40;;;;;;;3.90;3.57;;;4.10;99.90;;;;;;5049139;28;20944;-72
2021/11/30 05:08:07;;;;;;;3.47;3.17;;;4.20;99.90;;;;;;5044232;28;20429;-72
2021/11/30 05:10:33;;;;;;;3.60;3.30;;;4.20;99.90;;;;;;5054928;28;20429;-73
2021/11/30 05:12:58;;;;;;;4.13;3.73;;;4.30;99.90;;;;;;5055682;28;20447;-72
2021/11/30 05:15:24;;;;;;;4.90;4.50;;;4.40;99.90;;;;;;5058816;28;20631;-73
2021/11/30 05:17:50;;;;;;;3.93;3.63;;;4.40;99.90;;;;;;5062450;28;20179;-71
2021/11/30 05:20:16;;;;;;;4.17;3.87;;;4.40;99.90;;;;;;5059042;28;20213;-71
2021/11/30 05:22:42;;;;;;;4.20;3.80;;;4.40;99.90;;;;;;5057122;28;20245;-71
2021/11/30 05:25:07;;;;;;;3.87;3.57;;;4.40;99.90;;;;;;5065790;28;20446;-70
2021/11/30 05:27:39;;;;;;;6.07;4.90;;;4.50;99.90;;;;;;5055373;28;20435;-71
2021/11/30 05:30:18;;;;;;;5.83;4.33;;;4.60;99.90;;;;;;5030590;28;20840;-70
2021/11/30 05:32:44;;;;;;;5.93;5.33;;;4.60;99.90;;;;;;5065552;28;20534;-70
2021/11/30 05:35:10;;;;;;;5.10;4.50;;;4.60;99.90;;;;;;5067337;28;20597;-71
2021/11/30 05:37:36;;;;;;;5.33;4.83;;;4.60;99.90;;;;;;5065846;28;20452;-74
2021/11/30 05:40:04;;;;;;;5.00;4.60;;;4.70;99.90;;;;;;5066255;28;20508;-72
2021/11/30 05:42:30;;;;;;;5.20;4.70;;;4.80;99.90;;;;;;5067290;28;20248;-72
2021/11/30 05:44:55;;;;;;;4.87;4.47;;;4.80;99.90;;;;;;5056121;28;20466;-72
2021/11/30 05:47:21;;;;;;;5.50;5.00;;;4.80;99.90;;;;;;5070065;28;20456;-71
2021/11/30 05:49:47;;;;;;;5.87;5.43;;;4.80;99.90;;;;;;5081907;28;20458;-72
2021/11/30 05:52:12;;;;;;;5.30;4.90;;;4.90;99.90;;;;;;5080885;28;20296;-71
2021/11/30 05:54:39;;;;;;;5.57;5.07;;;5.00;99.90;;;;;;5075958;28;20201;-71
2021/11/30 05:57:11;;;;;;;5.77;5.27;;;5.00;99.90;;;;;;5040026;28;20225;-72
2021/11/30 05:59:40;;;;;;;5.60;5.10;;;5.00;99.90;;;;;;5033516;28;20812;-73
2021/11/30 06:02:07;;;;;;;5.10;4.70;;;5.00;99.90;;;;;;5032880;28;20468;-71
2021/11/30 06:04:33;;;;;;;6.20;5.03;;;5.10;99.90;;;;;;5033356;28;20474;-71
2021/11/30 06:06:58;;;;;;;5.03;4.53;;;5.10;99.90;;;;;;5020809;28;20461;-70
2021/11/30 06:09:24;;;;;;;4.07;3.67;;;5.10;99.90;;;;;;5053650;28;20200;-71
2021/11/30 06:11:49;;;;;;;3.90;3.70;;;5.10;99.90;;;;;;5056627;28;20283;-72
2021/11/30 06:14:15;;;;;;;3.90;3.60;;;5.10;99.90;;;;;;5050664;28;20318;-72
2021/11/30 06:16:41;;;;;;;4.10;3.70;;;5.10;99.90;;;;;;5052061;28;20245;-72
2021/11/30 06:19:07;;;;;;;4.30;3.83;;;5.10;99.90;;;;;;5039597;28;20251;-71
2021/11/30 06:21:33;;;;;;;4.33;3.93;;;5.10;99.90;;;;;;5014604;28;20227;-71
2021/11/30 06:23:59;;;;;;;4.73;4.33;;;5.10;99.90;;;;;;5015620;28;20453;-71
2021/11/30 06:26:25;;;;;;;3.90;3.60;;;5.10;99.90;;;;;;5032253;28;20492;-72
2021/11/30 06:28:50;;;;;;;4.57;3.90;;;5.20;99.90;;;;;;5037512;28;20803;-73
2021/11/30 06:31:17;;;;;;;5.03;4.00;;;5.30;99.90;;;;;;5052254;28;20543;-72
2021/11/30 06:33:43;;;;;;;5.33;4.83;;;5.30;99.90;;;;;;5038333;28;20202;-72
2021/11/30 06:36:08;;;;;;;4.50;4.10;;;5.30;99.90;;;;;;5033680;28;20460;-72
2021/11/30 06:38:34;;;;;;;5.17;3.97;;;5.30;99.90;;;;;;5034705;28;20452;-73
2021/11/30 06:40:59;;;;;;;4.90;4.40;;;5.30;99.90;;;;;;5036559;28;20701;-73
2021/11/30 06:43:25;;;;;;;4.97;4.10;;;5.30;99.90;;;;;;5052052;28;20213;-73
2021/11/30 06:45:51;;;;;;;4.67;4.10;;;5.30;99.90;;;;;;5053014;28;20295;-73
2021/11/30 06:48:17;;;;;;;4.80;4.40;;;5.40;99.90;;;;;;5052191;28;20178;-72
2021/11/30 06:50:44;;;;;;;4.70;4.40;;;5.40;99.90;;;;;;5052257;28;20204;-72
2021/11/30 06:53:09;;;;;;;5.07;4.60;;;5.40;99.90;;;;;;5067776;22;21070;-69
2021/11/30 06:55:35;;;;;;;4.90;4.50;;;5.40;99.90;;;;;;5033218;28;20417;-68
2021/11/30 06:58:00;;;;;;;4.47;4.03;;;5.50;99.90;;;;;;5031021;28;20178;-68
2021/11/30 07:00:26;;;;;;;5.80;5.20;;;5.50;99.90;;;;;;5030943;28;20202;-69
2021/11/30 07:02:52;;;;;;;5.73;5.23;;;5.50;99.90;;;;;;5044885;28;20289;-68
2021/11/30 07:05:25;;;;;;;5.87;5.30;;;5.50;99.90;;;;;;5050847;28;20212;-69
2021/11/30 07:08:12;;;;;;;4.80;4.30;;;5.50;99.90;;;;;;5032612;28;20650;-68
2021/11/30 07:10:51;;;;;;;5.27;4.77;;;5.60;99.90;;;;;;5052602;28;20465;-69
2021/11/30 07:13:27;;;;;;;4.33;3.93;;;5.60;99.90;;;;;;5052976;28;20444;-68
2021/11/30 07:15:58;;;;;;;4.80;4.37;;;5.60;99.90;;;;;;5034529;28;20415;-69
2021/11/30 07:18:26;;;;;;;4.97;4.47;;;5.60;99.90;;;;;;5052198;28;20416;-69
2021/11/30 07:20:53;;;;;;;5.20;4.70;;;5.60;99.90;;;;;;5052502;28;20464;-70
2021/11/30 07:23:20;;;;;;;5.80;4.23;;;5.70;99.90;;;;;;5055231;28;20444;-69
2021/11/30 07:25:51;;;;;;;4.67;4.27;;;5.70;99.90;;;;;;5052219;28;20447;-69
2021/11/30 07:28:18;;;;;;;5.50;4.90;;;5.70;99.90;;;;;;5052161;28;20396;-68
2021/11/30 07:30:43;;;;;;;5.77;5.17;;;5.80;99.90;;;;;;5052158;28;20409;-68
2021/11/30 07:33:09;;;;;;;5.93;5.33;;;5.80;99.90;;;;;;5051875;28;20793;-67
2021/11/30 07:35:34;;;;;;;4.10;3.70;;;5.80;99.90;;;;;;5050639;28;20257;-68
2021/11/30 07:38:00;;;;;;;5.07;4.60;;;5.80;99.90;;;;;;5052200;28;20666;-68
2021/11/30 07:40:26;;;;;;;5.90;5.20;;;5.80;99.90;;;;;;5052077;28;20332;-69
2021/11/30 07:42:51;;;;;;;5.40;4.90;;;5.80;99.90;;;;;;5052139;28;20481;-67
2021/11/30 07:45:17;;;;;;;5.90;5.23;;;5.80;99.90;;;;;;5051761;28;20262;-69
2021/11/30 07:47:44;;;;;;;6.57;5.97;;;5.90;99.90;;;;;;5051150;28;20853;-68
2021/11/30 07:50:10;;;;;;;6.80;5.43;;;5.90;99.90;;;;;;5051475;28;20495;-68
2021/11/30 07:52:43;;;;;;;6.60;5.60;;;5.90;99.90;;;;;;5051982;28;20444;-70
2021/11/30 07:55:11;;;;;;;7.17;6.47;;;5.90;99.90;;;;;;5032607;28;20433;-69
2021/11/30 07:57:38;;;;;;;6.77;5.97;;;5.90;99.90;;;;;;5051932;28;20476;-69
2021/11/30 08:00:07;;;;;;;7.80;6.77;;;6.00;99.90;;;;;;5051556;28;20408;-70
2021/11/30 08:02:33;;;;;;;7.10;6.00;;;6.00;99.90;;;;;;5051192;28;20431;-68
2021/11/30 08:04:58;;;;;;;7.60;6.43;;;6.00;99.90;;;;;;5051481;28;20397;-67
2021/11/30 08:07:24;;;;;;;7.13;5.80;;;6.00;99.90;;;;;;5051071;28;20174;-68
2021/11/30 08:09:50;;;;;;;9.90;6.47;;;6.00;99.90;;;;;;5051897;28;20189;-68
2021/11/30 08:12:17;;;;;;;7.90;6.50;;;6.00;99.90;;;;;;5051761;28;20188;-70
2021/11/30 08:14:43;;;;;;;8.47;6.60;;;6.00;99.90;;;;;;5051706;28;20400;-67
2021/11/30 08:17:19;;;;;;;7.30;6.60;;;6.10;99.90;;;;;;5050874;28;20447;-68
2021/11/30 08:19:46;;;;;;;8.23;6.73;;;6.10;99.90;;;;;;5033760;28;20412;-68
2021/11/30 08:22:12;;;;;;;7.80;6.27;;;6.10;99.90;;;;;;5051656;28;20428;-69
2021/11/30 08:24:38;;;;;;;8.17;6.80;;;6.10;99.90;;;;;;5051495;28;21020;-68
2021/11/30 08:27:05;;;;;;;8.93;7.43;;;6.20;99.90;;;;;;5050890;28;20178;-68
2021/11/30 08:29:34;;;;;;;9.73;6.87;;;6.20;99.90;;;;;;5051370;28;20296;-68
2021/11/30 08:32:00;;;;;;;7.67;6.87;;;6.30;99.90;;;;;;5051344;28;20499;-68
2021/11/30 08:34:25;;;;;;;8.17;6.60;;;6.20;99.90;;;;;;5033709;28;21002;-68
2021/11/30 08:36:51;;;;;;;8.87;6.57;;;6.30;99.90;;;;;;5051354;28;20642;-68
2021/11/30 08:39:17;;;;;;;8.47;6.93;;;6.30;99.90;;;;;;5051039;28;20178;-68
2021/11/30 08:41:43;;;;;;;7.27;6.10;;;6.30;99.90;;;;;;5051183;28;20237;-68
2021/11/30 08:44:08;;;;;;;6.10;5.50;;;6.30;99.90;;;;;;5051379;28;20541;-68
2021/11/30 08:46:34;;;;;;;7.60;6.80;;;6.30;99.90;;;;;;5050766;28;20444;-68
2021/11/30 08:49:00;;;;;;;6.40;5.80;;;6.40;99.90;;;;;;5051062;28;20182;-67
2021/11/30 08:51:25;;;;;;;6.87;5.93;;;6.40;99.90;;;;;;5051107;28;20182;-68
2021/11/30 08:53:51;;;;;;;7.43;5.63;;;6.40;99.90;;;;;;5051164;28;20179;-68
2021/11/30 08:56:16;;;;;;;7.70;6.00;;;6.40;99.90;;;;;;5051156;28;20253;-68
2021/11/30 08:58:42;;;;;;;7.20;6.47;;;6.40;99.90;;;;;;5050932;28;20222;-68
2021/11/30 09:01:09;;;;;;;9.40;6.90;;;6.40;99.90;;;;;;5033146;28;20674;-68
2021/11/30 09:03:34;;;;;;;6.10;5.50;;;6.50;99.90;;;;;;5050920;28;20603;-69
2021/11/30 09:06:00;;;;;;;6.50;5.90;;;6.50;99.90;;;;;;5034312;28;20424;-69
2021/11/30 09:08:26;;;;;;;7.37;5.90;;;6.50;99.90;;;;;;5054885;28;20683;-69
2021/11/30 09:10:53;;;;;;;7.40;6.70;;;6.50;99.90;;;;;;5054984;28;20776;-69
2021/11/30 09:13:18;;;;;;;6.83;6.10;;;6.50;99.90;;;;;;5054643;28;20217;-69
2021/11/30 09:15:45;;;;;;;7.70;6.53;;;6.60;99.90;;;;;;5054461;28;20409;-69
2021/11/30 09:18:10;;;;;;;6.17;5.57;;;6.60;99.90;;;;;;5036875;28;20240;-68
2021/11/30 09:20:36;;;;;;;6.30;5.70;;;6.60;99.90;;;;;;5055201;28;20455;-69
2021/11/30 09:23:03;;;;;;;7.17;6.40;;;6.70;99.90;;;;;;5036432;28;20248;-69
2021/11/30 09:25:28;;;;;;;6.77;6.07;;;6.70;99.90;;;;;;5036652;28;20182;-68
2021/11/30 09:27:54;;;;;;;6.90;5.90;;;6.70;99.90;;;;;;5054561;28;20971;-68
2021/11/30 09:30:22;;;;;;;7.20;6.10;;;6.70;99.90;;;;;;5054568;28;20182;-68
2021/11/30 09:32:49;;;;;;;7.27;6.23;;;6.70;99.90;;;;;;5054308;28;20443;-70
2021/11/30 09:35:18;;;;;;;8.10;6.63;;;6.80;99.90;;;;;;5054498;28;20429;-69
2021/11/30 09:37:46;;;;;;;6.80;6.00;;;6.80;99.90;;;;;;5054775;28;20423;-69
2021/11/30 09:40:16;;;;;;;7.33;6.13;;;6.80;99.90;;;;;;5055243;28;20452;-69
2021/11/30 09:42:47;;;;;;;7.73;6.23;;;6.80;99.90;;;;;;5055511;28;20427;-68
2021/11/30 09:45:13;;;;;;;6.93;6.23;;;6.90;99.90;;;;;;5054466;28;20960;-69
2021/11/30 09:47:40;;;;;;;9.07;7.30;;;6.90;99.90;;;;;;5055242;28;20448;-69
2021/11/30 09:50:08;;;;;;;6.47;5.70;;;6.90;99.90;;;;;;5055218;28;20419;-69
2021/11/30 09:52:34;;;;;;;8.50;7.23;;;6.90;99.90;;;;;;5054700;28;20457;-69
2021/11/30 09:55:00;;;;;;;7.17;6.37;;;6.90;99.90;;;;;;5054717;28;20487;-69
2021/11/30 09:57:26;;;;;;;8.20;7.40;;;6.90;99.90;;;;;;5054693;28;20458;-69
2021/11/30 09:59:51;;;;;;;7.47;6.70;;;7.00;99.90;;;;;;5063321;28;20173;-69
2021/11/30 10:02:17;;;;;;;8.40;6.40;;;7.00;99.90;;;;;;5065880;28;20191;-69
2021/11/30 10:04:43;;;;;;;8.10;5.90;;;7.00;99.90;;;;;;5064528;28;20216;-69
2021/11/30 10:07:09;;;;;;;8.60;7.70;;;7.00;99.90;;;;;;5064658;28;20490;-69
2021/11/30 10:09:35;;;;;;;10.93;6.83;;;7.10;99.90;;;;;;5059112;28;20441;-69
2021/11/30 10:12:06;;;;;;;11.63;7.10;;;7.10;99.90;;;;;;5054747;28;20437;-70
2021/11/30 10:14:35;;;;;;;7.50;6.47;;;7.10;99.90;;;;;;5054994;28;20393;-69
2021/11/30 10:17:19;;;;;;;8.33;6.70;;;7.20;99.90;;;;;;5040280;28;20944;-69
2021/11/30 10:19:54;;;;;;;8.80;7.63;;;7.20;99.90;;;;;;5063291;28;20751;-69
2021/11/30 10:22:51;;;;;;;7.47;6.77;;;7.20;99.90;;;;;;5062172;28;20436;-69
2021/11/30 10:25:24;;;;;;;7.50;6.37;;;7.30;99.90;;;;;;5062416;28;20420;-69
2021/11/30 10:27:51;;;;;;;6.57;5.93;;;7.30;99.90;;;;;;5049060;28;20867;-69
2021/11/30 10:30:26;;;;;;;6.87;5.80;;;7.30;99.90;;;;;;5073595;28;20433;-69
2021/11/30 10:32:54;;;;;;;6.20;5.50;;;7.40;99.90;;;;;;5046738;28;20519;-69
2021/11/30 10:35:22;;;;;;;6.33;5.73;;;7.40;99.90;;;;;;5054339;28;20400;-69
2021/11/30 10:37:48;;;;;;;5.87;5.27;;;7.40;99.90;;;;;;5053561;28;20425;-69
2021/11/30 10:40:22;;;;;;;6.90;6.20;;;7.40;99.90;;;;;;5053570;28;20456;-71
2021/11/30 10:42:57;;;;;;;5.80;5.27;;;7.40;99.90;;;;;;5035579;28;20207;-69
2021/11/30 10:45:29;;;;;;;6.53;5.83;;;7.40;99.90;;;;;;5053549;28;20409;-68
2021/11/30 10:48:05;;;;;;;5.73;5.23;;;7.50;99.90;;;;;;5053908;28;20404;-69
2021/11/30 10:50:38;;;;;;;5.37;4.87;;;7.60;99.90;;;;;;5053494;28;20412;-70
2021/11/30 10:53:30;;;;;;;8.03;4.53;;;7.60;99.90;;;;;;5033361;28;20455;-69
2021/11/30 10:56:06;;;;;;;6.00;5.40;;;7.60;99.90;;;;;;5033068;28;20510;-69
2021/11/30 10:58:34;;;;;;;6.23;5.63;;;7.60;99.90;;;;;;5033364;28;20432;-72
2021/11/30 11:01:05;;;;;;;5.60;5.10;;;7.60;99.90;;;;;;5032849;28;21042;-69
2021/11/30 11:03:31;;;;;;;5.97;5.37;;;7.70;99.90;;;;;;5052459;28;20471;-69
2021/11/30 11:08:55;;;;;;;7.00;5.47;;;7.70;99.90;;;;;;5053232;28;20312;-69
2021/11/30 11:11:28;;;;;;;7.20;5.90;;;7.70;99.90;;;;;;5052352;28;20468;-69
2021/11/30 11:13:55;;;;;;;6.43;5.77;;;7.70;99.90;;;;;;5052761;28;20401;-69
2021/11/30 11:16:27;;;;;;;7.23;6.60;;;7.70;99.90;;;;;;5034427;28;20556;-68
2021/11/30 11:18:58;;;;;;;8.50;7.57;;;7.70;99.90;;;;;;5052820;28;20409;-68
2021/11/30 11:21:32;;;;;;;7.27;6.57;;;7.70;99.90;;;;;;5051970;28;20478;-68
2021/11/30 11:24:05;;;;;;;6.80;6.03;;;7.70;99.90;;;;;;5034377;28;20422;-68
2021/11/30 11:26:33;;;;;;;6.97;6.27;;;7.80;99.90;;;;;;5034269;28;20500;-68
2021/11/30 11:29:03;;;;;;;7.83;6.77;;;7.80;99.90;;;;;;5052088;28;20402;-70
2021/11/30 11:31:29;;;;;;;7.23;6.53;;;7.80;99.90;;;;;;5051769;28;20527;-67
2021/11/30 11:33:56;;;;;;;6.90;6.17;;;7.80;99.90;;;;;;5052125;28;20825;-69
2021/11/30 11:36:22;;;;;;;5.70;5.20;;;7.80;99.90;;;;;;5051774;28;20545;-69
2021/11/30 11:38:48;;;;;;;6.40;5.80;;;7.80;99.90;;;;;;5051959;28;20436;-70
2021/11/30 11:41:14;;;;;;;6.70;6.10;;;7.90;99.90;;;;;;5052054;28;20817;-70
2021/11/30 11:43:40;;;;;;;6.03;5.43;;;7.90;99.90;;;;;;5051436;28;20178;-70
2021/11/30 11:46:11;;;;;;;5.53;5.03;;;7.90;99.90;;;;;;5051924;28;20446;-69
2021/11/30 11:48:38;;;;;;;5.70;5.13;;;7.90;99.90;;;;;;5052150;28;20413;-69
2021/11/30 11:51:05;;;;;;;6.77;6.17;;;8.00;99.90;;;;;;5052217;28;20512;-68
2021/11/30 11:53:37;;;;;;;5.80;5.30;;;8.00;99.90;;;;;;5051269;28;20547;-68
2021/11/30 11:56:12;;;;;;;5.17;4.40;;;8.00;99.90;;;;;;5051311;28;20409;-67
2021/11/30 11:58:40;;;;;;;5.80;4.97;;;8.10;99.90;;;;;;5052096;28;20408;-68
2021/11/30 12:01:07;;;;;;;5.40;4.90;;;8.00;99.90;;;;;;5051814;28;20483;-68
2021/11/30 12:04:00;;;;;;;5.50;4.87;;;8.00;99.90;;;;;;5051393;28;20803;-68
2021/11/30 12:06:30;;;;;;;6.57;5.30;;;8.00;99.90;;;;;;5051388;28;20393;-68
2021/11/30 12:09:23;;;;;;;5.87;5.27;;;8.10;99.90;;;;;;5051666;28;20438;-68
2021/11/30 12:11:57;;;;;;;5.57;4.97;;;8.00;99.90;;;;;;5051912;28;20429;-68
2021/11/30 12:14:32;;;;;;;5.23;4.63;;;8.00;99.90;;;;;;5051238;28;20422;-69
2021/11/30 12:17:17;;;;;;;7.50;4.40;;;8.10;99.90;;;;;;5046580;28;20423;-68
2021/11/30 12:20:06;;;;;;;4.93;4.20;;;8.10;99.90;;;;;;5059147;28;20418;-68
2021/11/30 12:22:56;;;;;;;6.97;5.70;;;8.10;99.90;;;;;;5055829;28;20436;-68
2021/11/30 12:25:41;;;;;;;6.03;4.77;;;8.10;99.90;;;;;;5051532;28;20468;-67
2021/11/30 12:28:09;;;;;;;6.03;5.17;;;8.10;99.90;;;;;;5044912;28;20442;-69
2021/11/30 12:30:40;;;;;;;4.73;4.07;;;8.10;99.90;;;;;;5030075;28;20908;-69
2021/11/30 12:33:12;;;;;;;5.70;4.80;;;8.20;99.90;;;;;;5028930;28;20444;-68
2021/11/30 12:35:44;;;;;;;5.30;4.40;;;8.20;99.90;;;;;;5044946;28;20899;-69
2021/11/30 12:38:18;;;;;;;4.57;3.97;;;8.20;99.90;;;;;;5039612;28;20546;-68
2021/11/30 12:40:48;;;;;;;3.63;3.33;;;8.20;99.90;;;;;;5045356;28;20483;-68
2021/11/30 12:43:14;;;;;;;3.90;3.20;;;8.20;99.90;;;;;;5052748;28;20451;-69
2021/11/30 12:45:44;;;;;;;4.77;3.50;;;8.20;99.90;;;;;;5058402;28;20440;-68
2021/11/30 12:48:19;;;;;;;5.00;4.20;;;8.20;99.90;;;;;;5060011;28;20471;-69
2021/11/30 12:50:45;;;;;;;4.77;4.37;;;8.20;99.90;;;;;;5055616;28;20439;-68
2021/11/30 12:53:12;;;;;;;4.77;4.23;;;8.20;99.90;;;;;;5043775;28;20469;-69
2021/11/30 12:55:54;;;;;;;5.30;4.10;;;8.20;99.90;;;;;;5045832;28;21198;-68
2021/11/30 12:58:42;;;;;;;6.43;4.20;;;8.20;99.90;;;;;;5061787;22;20495;-69
2021/11/30 13:01:24;;;;;;;4.37;3.80;;;8.20;99.90;;;;;;5050217;28;20507;-69
2021/11/30 13:04:11;;;;;;;6.57;4.60;;;8.30;99.90;;;;;;5048158;28;20490;-68
2021/11/30 13:07:02;;;;;;;4.80;4.30;;;8.30;99.90;;;;;;5037949;28;20412;-70
2021/11/30 13:09:43;;;;;;;5.80;4.90;;;8.30;99.90;;;;;;5041242;28;20497;-68
2021/11/30 13:12:13;;;;;;;4.20;3.83;;;8.30;99.90;;;;;;5032499;28;20517;-70